sensor_id;sensor_type;location;lat;lon;timestamp;P1;durP1;ratioP1;P2;durP2;ratioP2
10605;SDS011;5350;42.698;23.148;2023-08-30T00:01:40;8.77;;;7.20;;
10605;SDS011;5350;42.698;23.148;2023-08-30T00:04:07;7.78;;;6.85;;
10605;SDS011;5350;42.698;23.148;2023-08-30T00:06:33;8.77;;;6.93;;
10605;SDS011;5350;42.698;23.148;2023-08-30T00:09:00;7.10;;;6.28;;
10605;SDS011;5350;42.698;23.148;2023-08-30T00:11:28;8.82;;;7.15;;
10605;SDS011;5350;42.698;23.148;2023-08-30T00:14:01;9.18;;;7.97;;
10605;SDS011;5350;42.698;23.148;2023-08-30T00:16:30;7.88;;;7.07;;
10605;SDS011;5350;42.698;23.148;2023-08-30T00:18:57;8.50;;;6.80;;
10605;SDS011;5350;42.698;23.148;2023-08-30T00:21:24;13.27;;;7.38;;
10605;SDS011;5350;42.698;23.148;2023-08-30T00:23:52;8.10;;;6.22;;
10605;SDS011;5350;42.698;23.148;2023-08-30T00:26:19;11.13;;;8.50;;
10605;SDS011;5350;42.698;23.148;2023-08-30T00:28:45;7.78;;;7.03;;
10605;SDS011;5350;42.698;23.148;2023-08-30T00:31:14;9.57;;;7.57;;
10605;SDS011;5350;42.698;23.148;2023-08-30T00:33:40;12.32;;;7.30;;
10605;SDS011;5350;42.698;23.148;2023-08-30T00:36:07;9.65;;;7.55;;
10605;SDS011;5350;42.698;23.148;2023-08-30T00:38:34;7.55;;;6.85;;
10605;SDS011;5350;42.698;23.148;2023-08-30T00:41:00;8.68;;;7.43;;
10605;SDS011;5350;42.698;23.148;2023-08-30T00:43:27;9.60;;;7.80;;
10605;SDS011;5350;42.698;23.148;2023-08-30T00:45:54;9.43;;;7.40;;
10605;SDS011;5350;42.698;23.148;2023-08-30T00:48:22;11.45;;;7.70;;
10605;SDS011;5350;42.698;23.148;2023-08-30T00:50:49;7.43;;;6.72;;
10605;SDS011;5350;42.698;23.148;2023-08-30T00:53:15;16.80;;;8.00;;
10605;SDS011;5350;42.698;23.148;2023-08-30T00:55:43;9.73;;;7.47;;
10605;SDS011;5350;42.698;23.148;2023-08-30T00:58:10;8.43;;;7.55;;
10605;SDS011;5350;42.698;23.148;2023-08-30T01:00:37;9.52;;;7.13;;
10605;SDS011;5350;42.698;23.148;2023-08-30T01:03:05;9.35;;;7.38;;
10605;SDS011;5350;42.698;23.148;2023-08-30T01:05:34;9.60;;;7.13;;
10605;SDS011;5350;42.698;23.148;2023-08-30T01:08:01;11.80;;;7.53;;
10605;SDS011;5350;42.698;23.148;2023-08-30T01:10:40;10.20;;;7.28;;
10605;SDS011;5350;42.698;23.148;2023-08-30T01:13:18;8.88;;;7.43;;
10605;SDS011;5350;42.698;23.148;2023-08-30T01:15:46;10.35;;;6.82;;
10605;SDS011;5350;42.698;23.148;2023-08-30T01:18:14;7.90;;;7.05;;
10605;SDS011;5350;42.698;23.148;2023-08-30T01:20:45;9.23;;;7.72;;
10605;SDS011;5350;42.698;23.148;2023-08-30T01:23:17;7.22;;;6.53;;
10605;SDS011;5350;42.698;23.148;2023-08-30T01:25:54;8.60;;;6.78;;
10605;SDS011;5350;42.698;23.148;2023-08-30T01:28:26;12.27;;;7.15;;
10605;SDS011;5350;42.698;23.148;2023-08-30T01:30:57;10.23;;;7.70;;
10605;SDS011;5350;42.698;23.148;2023-08-30T01:33:24;10.35;;;7.40;;
10605;SDS011;5350;42.698;23.148;2023-08-30T01:35:53;11.98;;;7.38;;
10605;SDS011;5350;42.698;23.148;2023-08-30T01:38:21;8.35;;;6.45;;
10605;SDS011;5350;42.698;23.148;2023-08-30T01:40:50;7.65;;;6.78;;
10605;SDS011;5350;42.698;23.148;2023-08-30T01:43:19;9.07;;;6.95;;
10605;SDS011;5350;42.698;23.148;2023-08-30T01:45:48;8.43;;;6.45;;
10605;SDS011;5350;42.698;23.148;2023-08-30T01:48:15;8.27;;;6.60;;
10605;SDS011;5350;42.698;23.148;2023-08-30T01:50:43;7.75;;;6.70;;
10605;SDS011;5350;42.698;23.148;2023-08-30T01:53:11;8.15;;;7.03;;
10605;SDS011;5350;42.698;23.148;2023-08-30T01:55:39;10.77;;;7.32;;
10605;SDS011;5350;42.698;23.148;2023-08-30T01:58:06;8.00;;;7.10;;
10605;SDS011;5350;42.698;23.148;2023-08-30T02:00:34;9.35;;;7.43;;
10605;SDS011;5350;42.698;23.148;2023-08-30T02:03:08;10.55;;;6.97;;
10605;SDS011;5350;42.698;23.148;2023-08-30T02:05:35;7.80;;;6.55;;
10605;SDS011;5350;42.698;23.148;2023-08-30T02:08:09;9.80;;;6.63;;
10605;SDS011;5350;42.698;23.148;2023-08-30T02:10:40;11.95;;;6.78;;
10605;SDS011;5350;42.698;23.148;2023-08-30T02:13:10;8.90;;;6.30;;
10605;SDS011;5350;42.698;23.148;2023-08-30T02:15:38;8.60;;;6.40;;
10605;SDS011;5350;42.698;23.148;2023-08-30T02:18:09;10.48;;;5.55;;
10605;SDS011;5350;42.698;23.148;2023-08-30T02:20:36;9.93;;;5.88;;
10605;SDS011;5350;42.698;23.148;2023-08-30T02:23:03;7.43;;;5.88;;
10605;SDS011;5350;42.698;23.148;2023-08-30T02:25:30;8.65;;;6.30;;
10605;SDS011;5350;42.698;23.148;2023-08-30T02:27:56;8.05;;;5.55;;
10605;SDS011;5350;42.698;23.148;2023-08-30T02:30:23;7.55;;;5.85;;
10605;SDS011;5350;42.698;23.148;2023-08-30T02:32:50;8.80;;;5.55;;
10605;SDS011;5350;42.698;23.148;2023-08-30T02:35:18;13.57;;;5.53;;
10605;SDS011;5350;42.698;23.148;2023-08-30T02:37:45;8.10;;;5.45;;
10605;SDS011;5350;42.698;23.148;2023-08-30T02:40:11;9.10;;;6.25;;
10605;SDS011;5350;42.698;23.148;2023-08-30T02:42:38;9.40;;;5.10;;
10605;SDS011;5350;42.698;23.148;2023-08-30T02:45:05;14.20;;;5.30;;
10605;SDS011;5350;42.698;23.148;2023-08-30T02:47:32;11.02;;;5.72;;
10605;SDS011;5350;42.698;23.148;2023-08-30T02:49:59;7.55;;;5.25;;
10605;SDS011;5350;42.698;23.148;2023-08-30T02:52:27;7.65;;;5.40;;
10605;SDS011;5350;42.698;23.148;2023-08-30T02:54:54;6.32;;;5.45;;
10605;SDS011;5350;42.698;23.148;2023-08-30T02:57:21;6.10;;;4.82;;
10605;SDS011;5350;42.698;23.148;2023-08-30T02:59:47;6.55;;;4.60;;
10605;SDS011;5350;42.698;23.148;2023-08-30T03:02:14;6.95;;;4.53;;
10605;SDS011;5350;42.698;23.148;2023-08-30T03:04:41;6.60;;;4.55;;
10605;SDS011;5350;42.698;23.148;2023-08-30T03:07:07;5.13;;;4.05;;
10605;SDS011;5350;42.698;23.148;2023-08-30T03:09:35;6.75;;;4.10;;
10605;SDS011;5350;42.698;23.148;2023-08-30T03:12:04;7.05;;;4.57;;
10605;SDS011;5350;42.698;23.148;2023-08-30T03:14:31;9.43;;;4.80;;
10605;SDS011;5350;42.698;23.148;2023-08-30T03:16:57;8.48;;;4.80;;
10605;SDS011;5350;42.698;23.148;2023-08-30T03:19:24;6.78;;;4.35;;
10605;SDS011;5350;42.698;23.148;2023-08-30T03:21:51;8.55;;;5.25;;
10605;SDS011;5350;42.698;23.148;2023-08-30T03:24:18;7.20;;;4.70;;
10605;SDS011;5350;42.698;23.148;2023-08-30T03:26:46;10.05;;;4.35;;
10605;SDS011;5350;42.698;23.148;2023-08-30T03:29:12;6.55;;;4.00;;
10605;SDS011;5350;42.698;23.148;2023-08-30T03:31:39;6.68;;;4.22;;
10605;SDS011;5350;42.698;23.148;2023-08-30T03:34:06;8.73;;;4.50;;
10605;SDS011;5350;42.698;23.148;2023-08-30T03:36:32;5.90;;;4.55;;
10605;SDS011;5350;42.698;23.148;2023-08-30T03:38:59;5.53;;;4.00;;
10605;SDS011;5350;42.698;23.148;2023-08-30T03:41:26;7.35;;;4.20;;
10605;SDS011;5350;42.698;23.148;2023-08-30T03:43:54;6.05;;;4.30;;
10605;SDS011;5350;42.698;23.148;2023-08-30T03:46:21;6.28;;;4.35;;
10605;SDS011;5350;42.698;23.148;2023-08-30T03:48:47;12.02;;;4.75;;
10605;SDS011;5350;42.698;23.148;2023-08-30T03:51:14;9.48;;;4.57;;
10605;SDS011;5350;42.698;23.148;2023-08-30T03:53:41;6.80;;;4.18;;
10605;SDS011;5350;42.698;23.148;2023-08-30T03:56:07;9.90;;;4.15;;
10605;SDS011;5350;42.698;23.148;2023-08-30T03:58:34;6.32;;;4.30;;
10605;SDS011;5350;42.698;23.148;2023-08-30T04:01:04;5.32;;;3.30;;
10605;SDS011;5350;42.698;23.148;2023-08-30T04:03:31;6.82;;;3.80;;
10605;SDS011;5350;42.698;23.148;2023-08-30T04:05:58;7.72;;;4.03;;
10605;SDS011;5350;42.698;23.148;2023-08-30T04:08:25;6.32;;;3.75;;
10605;SDS011;5350;42.698;23.148;2023-08-30T04:10:52;6.93;;;3.88;;
10605;SDS011;5350;42.698;23.148;2023-08-30T04:13:19;7.60;;;3.97;;
10605;SDS011;5350;42.698;23.148;2023-08-30T04:15:47;4.93;;;3.90;;
10605;SDS011;5350;42.698;23.148;2023-08-30T04:18:15;11.05;;;4.47;;
10605;SDS011;5350;42.698;23.148;2023-08-30T04:20:43;9.50;;;3.95;;
10605;SDS011;5350;42.698;23.148;2023-08-30T04:23:10;7.22;;;3.63;;
10605;SDS011;5350;42.698;23.148;2023-08-30T04:25:37;8.27;;;4.35;;
10605;SDS011;5350;42.698;23.148;2023-08-30T04:28:04;9.48;;;5.15;;
10605;SDS011;5350;42.698;23.148;2023-08-30T04:30:31;6.88;;;4.20;;
10605;SDS011;5350;42.698;23.148;2023-08-30T04:32:58;8.57;;;4.50;;
10605;SDS011;5350;42.698;23.148;2023-08-30T04:35:27;9.88;;;4.20;;
10605;SDS011;5350;42.698;23.148;2023-08-30T04:37:54;6.32;;;3.15;;
10605;SDS011;5350;42.698;23.148;2023-08-30T04:40:20;5.55;;;3.58;;
10605;SDS011;5350;42.698;23.148;2023-08-30T04:42:47;8.23;;;3.75;;
10605;SDS011;5350;42.698;23.148;2023-08-30T04:45:14;6.55;;;3.50;;
10605;SDS011;5350;42.698;23.148;2023-08-30T04:47:40;8.98;;;4.22;;
10605;SDS011;5350;42.698;23.148;2023-08-30T04:50:08;5.88;;;4.10;;
10605;SDS011;5350;42.698;23.148;2023-08-30T04:52:37;8.57;;;4.05;;
10605;SDS011;5350;42.698;23.148;2023-08-30T04:55:04;8.05;;;3.45;;
10605;SDS011;5350;42.698;23.148;2023-08-30T04:57:31;8.15;;;4.47;;
10605;SDS011;5350;42.698;23.148;2023-08-30T04:59:58;8.25;;;3.67;;
10605;SDS011;5350;42.698;23.148;2023-08-30T05:02:24;8.18;;;4.40;;
10605;SDS011;5350;42.698;23.148;2023-08-30T05:04:51;6.43;;;4.38;;
10605;SDS011;5350;42.698;23.148;2023-08-30T05:07:18;7.72;;;4.22;;
10605;SDS011;5350;42.698;23.148;2023-08-30T05:09:46;8.55;;;4.28;;
10605;SDS011;5350;42.698;23.148;2023-08-30T05:12:12;7.47;;;5.00;;
10605;SDS011;5350;42.698;23.148;2023-08-30T05:14:39;7.03;;;4.22;;
10605;SDS011;5350;42.698;23.148;2023-08-30T05:17:06;6.20;;;4.65;;
10605;SDS011;5350;42.698;23.148;2023-08-30T05:19:33;8.00;;;5.15;;
10605;SDS011;5350;42.698;23.148;2023-08-30T05:22:00;7.07;;;4.78;;
10605;SDS011;5350;42.698;23.148;2023-08-30T05:24:27;6.28;;;4.13;;
10605;SDS011;5350;42.698;23.148;2023-08-30T05:26:55;9.32;;;4.47;;
10605;SDS011;5350;42.698;23.148;2023-08-30T05:29:22;11.18;;;4.10;;
10605;SDS011;5350;42.698;23.148;2023-08-30T05:31:48;5.40;;;3.95;;
10605;SDS011;5350;42.698;23.148;2023-08-30T05:34:15;9.77;;;4.78;;
10605;SDS011;5350;42.698;23.148;2023-08-30T05:36:42;5.63;;;3.85;;
10605;SDS011;5350;42.698;23.148;2023-08-30T05:39:09;6.32;;;4.22;;
10605;SDS011;5350;42.698;23.148;2023-08-30T05:41:35;6.72;;;4.47;;
10605;SDS011;5350;42.698;23.148;2023-08-30T05:44:04;5.38;;;3.90;;
10605;SDS011;5350;42.698;23.148;2023-08-30T05:46:31;7.50;;;5.20;;
10605;SDS011;5350;42.698;23.148;2023-08-30T05:48:58;8.90;;;4.63;;
10605;SDS011;5350;42.698;23.148;2023-08-30T05:51:25;7.82;;;3.83;;
10605;SDS011;5350;42.698;23.148;2023-08-30T05:53:52;4.65;;;4.20;;
10605;SDS011;5350;42.698;23.148;2023-08-30T05:56:19;8.50;;;3.55;;
10605;SDS011;5350;42.698;23.148;2023-08-30T05:58:45;6.22;;;3.22;;
10605;SDS011;5350;42.698;23.148;2023-08-30T06:01:13;6.30;;;3.22;;
10605;SDS011;5350;42.698;23.148;2023-08-30T06:03:40;5.03;;;2.25;;
10605;SDS011;5350;42.698;23.148;2023-08-30T06:06:07;5.65;;;2.05;;
10605;SDS011;5350;42.698;23.148;2023-08-30T06:08:33;4.43;;;2.10;;
10605;SDS011;5350;42.698;23.148;2023-08-30T06:11:00;2.70;;;2.00;;
10605;SDS011;5350;42.698;23.148;2023-08-30T06:13:27;4.00;;;2.30;;
10605;SDS011;5350;42.698;23.148;2023-08-30T06:15:54;3.55;;;2.60;;
10605;SDS011;5350;42.698;23.148;2023-08-30T06:18:22;4.47;;;2.80;;
10605;SDS011;5350;42.698;23.148;2023-08-30T06:20:49;3.67;;;2.33;;
10605;SDS011;5350;42.698;23.148;2023-08-30T06:23:17;4.32;;;3.00;;
10605;SDS011;5350;42.698;23.148;2023-08-30T06:25:44;5.88;;;3.08;;
10605;SDS011;5350;42.698;23.148;2023-08-30T06:28:11;7.18;;;2.80;;
10605;SDS011;5350;42.698;23.148;2023-08-30T06:30:38;3.53;;;2.53;;
10605;SDS011;5350;42.698;23.148;2023-08-30T06:33:04;10.88;;;2.63;;
10605;SDS011;5350;42.698;23.148;2023-08-30T06:35:35;6.32;;;3.33;;
10605;SDS011;5350;42.698;23.148;2023-08-30T06:38:04;7.65;;;3.00;;
10605;SDS011;5350;42.698;23.148;2023-08-30T06:40:30;4.43;;;2.67;;
10605;SDS011;5350;42.698;23.148;2023-08-30T06:42:57;5.43;;;3.40;;
10605;SDS011;5350;42.698;23.148;2023-08-30T06:45:24;6.03;;;3.97;;
10605;SDS011;5350;42.698;23.148;2023-08-30T06:47:51;10.63;;;4.75;;
10605;SDS011;5350;42.698;23.148;2023-08-30T06:50:18;7.63;;;4.82;;
10605;SDS011;5350;42.698;23.148;2023-08-30T06:52:46;7.28;;;3.92;;
10605;SDS011;5350;42.698;23.148;2023-08-30T06:55:12;7.30;;;4.00;;
10605;SDS011;5350;42.698;23.148;2023-08-30T06:57:39;4.65;;;4.07;;
10605;SDS011;5350;42.698;23.148;2023-08-30T07:00:06;5.97;;;4.55;;
10605;SDS011;5350;42.698;23.148;2023-08-30T07:02:34;7.30;;;3.80;;
10605;SDS011;5350;42.698;23.148;2023-08-30T07:05:03;6.70;;;3.50;;
10605;SDS011;5350;42.698;23.148;2023-08-30T07:07:31;6.88;;;3.47;;
10605;SDS011;5350;42.698;23.148;2023-08-30T07:09:59;6.35;;;2.65;;
10605;SDS011;5350;42.698;23.148;2023-08-30T07:12:26;4.90;;;2.70;;
10605;SDS011;5350;42.698;23.148;2023-08-30T07:14:53;6.60;;;2.50;;
10605;SDS011;5350;42.698;23.148;2023-08-30T07:17:20;3.63;;;2.20;;
10605;SDS011;5350;42.698;23.148;2023-08-30T07:19:46;8.75;;;2.50;;
10605;SDS011;5350;42.698;23.148;2023-08-30T07:22:13;6.18;;;2.08;;
10605;SDS011;5350;42.698;23.148;2023-08-30T07:24:41;5.35;;;2.10;;
10605;SDS011;5350;42.698;23.148;2023-08-30T07:27:09;3.65;;;2.20;;
10605;SDS011;5350;42.698;23.148;2023-08-30T07:29:36;4.63;;;1.90;;
10605;SDS011;5350;42.698;23.148;2023-08-30T07:32:03;3.90;;;2.17;;
10605;SDS011;5350;42.698;23.148;2023-08-30T07:34:30;5.70;;;2.25;;
10605;SDS011;5350;42.698;23.148;2023-08-30T07:36:57;3.40;;;2.38;;
10605;SDS011;5350;42.698;23.148;2023-08-30T07:39:24;4.68;;;2.08;;
10605;SDS011;5350;42.698;23.148;2023-08-30T07:41:51;3.35;;;2.00;;
10605;SDS011;5350;42.698;23.148;2023-08-30T07:44:19;5.88;;;2.15;;
10605;SDS011;5350;42.698;23.148;2023-08-30T07:46:46;3.03;;;2.17;;
10605;SDS011;5350;42.698;23.148;2023-08-30T07:49:13;5.97;;;2.30;;
10605;SDS011;5350;42.698;23.148;2023-08-30T07:51:39;3.40;;;2.03;;
10605;SDS011;5350;42.698;23.148;2023-08-30T07:54:06;4.85;;;1.83;;
10605;SDS011;5350;42.698;23.148;2023-08-30T07:56:33;5.53;;;1.70;;
10605;SDS011;5350;42.698;23.148;2023-08-30T07:58:59;7.78;;;1.95;;
10605;SDS011;5350;42.698;23.148;2023-08-30T08:01:28;5.63;;;1.88;;
10605;SDS011;5350;42.698;23.148;2023-08-30T08:03:55;2.92;;;1.90;;
10605;SDS011;5350;42.698;23.148;2023-08-30T08:06:21;5.28;;;1.88;;
10605;SDS011;5350;42.698;23.148;2023-08-30T08:08:48;4.80;;;2.00;;
10605;SDS011;5350;42.698;23.148;2023-08-30T08:11:15;6.25;;;2.50;;
10605;SDS011;5350;42.698;23.148;2023-08-30T08:13:42;4.15;;;2.40;;
10605;SDS011;5350;42.698;23.148;2023-08-30T08:16:08;5.70;;;2.17;;
10605;SDS011;5350;42.698;23.148;2023-08-30T08:18:36;5.20;;;2.55;;
10605;SDS011;5350;42.698;23.148;2023-08-30T08:21:03;4.47;;;2.30;;
10605;SDS011;5350;42.698;23.148;2023-08-30T08:23:30;8.23;;;2.28;;
10605;SDS011;5350;42.698;23.148;2023-08-30T08:25:57;7.22;;;2.47;;
10605;SDS011;5350;42.698;23.148;2023-08-30T08:28:24;4.60;;;2.00;;
10605;SDS011;5350;42.698;23.148;2023-08-30T08:30:51;2.38;;;1.58;;
10605;SDS011;5350;42.698;23.148;2023-08-30T08:33:17;10.73;;;2.47;;
10605;SDS011;5350;42.698;23.148;2023-08-30T08:35:47;3.83;;;1.92;;
10605;SDS011;5350;42.698;23.148;2023-08-30T08:38:14;5.43;;;2.00;;
10605;SDS011;5350;42.698;23.148;2023-08-30T08:40:40;4.45;;;2.70;;
10605;SDS011;5350;42.698;23.148;2023-08-30T08:43:08;5.22;;;1.95;;
10605;SDS011;5350;42.698;23.148;2023-08-30T08:45:37;3.75;;;2.28;;
10605;SDS011;5350;42.698;23.148;2023-08-30T08:48:04;3.67;;;2.05;;
10605;SDS011;5350;42.698;23.148;2023-08-30T08:50:33;4.40;;;2.50;;
10605;SDS011;5350;42.698;23.148;2023-08-30T08:53:02;4.80;;;2.58;;
10605;SDS011;5350;42.698;23.148;2023-08-30T08:55:29;4.88;;;2.42;;
10605;SDS011;5350;42.698;23.148;2023-08-30T08:57:58;4.43;;;3.17;;
10605;SDS011;5350;42.698;23.148;2023-08-30T09:00:25;4.07;;;3.22;;
10605;SDS011;5350;42.698;23.148;2023-08-30T09:02:52;4.13;;;3.15;;
10605;SDS011;5350;42.698;23.148;2023-08-30T09:05:20;3.78;;;3.15;;
10605;SDS011;5350;42.698;23.148;2023-08-30T09:07:47;4.60;;;3.65;;
10605;SDS011;5350;42.698;23.148;2023-08-30T09:10:19;6.97;;;3.50;;
10605;SDS011;5350;42.698;23.148;2023-08-30T09:12:46;4.85;;;3.45;;
10605;SDS011;5350;42.698;23.148;2023-08-30T09:15:13;4.22;;;3.35;;
10605;SDS011;5350;42.698;23.148;2023-08-30T09:17:41;6.78;;;3.78;;
10605;SDS011;5350;42.698;23.148;2023-08-30T09:20:08;5.05;;;3.60;;
10605;SDS011;5350;42.698;23.148;2023-08-30T09:22:36;4.85;;;3.35;;
10605;SDS011;5350;42.698;23.148;2023-08-30T09:25:03;5.53;;;3.55;;
10605;SDS011;5350;42.698;23.148;2023-08-30T09:27:35;6.78;;;3.40;;
10605;SDS011;5350;42.698;23.148;2023-08-30T09:30:04;3.80;;;3.38;;
10605;SDS011;5350;42.698;23.148;2023-08-30T09:32:38;5.00;;;3.78;;
10605;SDS011;5350;42.698;23.148;2023-08-30T09:35:05;6.78;;;3.53;;
10605;SDS011;5350;42.698;23.148;2023-08-30T09:37:32;8.15;;;3.90;;
10605;SDS011;5350;42.698;23.148;2023-08-30T09:39:59;4.30;;;3.63;;
10605;SDS011;5350;42.698;23.148;2023-08-30T09:42:27;4.65;;;3.72;;
10605;SDS011;5350;42.698;23.148;2023-08-30T09:44:55;4.55;;;3.50;;
10605;SDS011;5350;42.698;23.148;2023-08-30T09:47:23;6.78;;;3.53;;
10605;SDS011;5350;42.698;23.148;2023-08-30T09:49:51;5.30;;;3.92;;
10605;SDS011;5350;42.698;23.148;2023-08-30T09:52:21;6.57;;;4.88;;
10605;SDS011;5350;42.698;23.148;2023-08-30T09:54:50;5.43;;;3.40;;
10605;SDS011;5350;42.698;23.148;2023-08-30T09:57:18;4.82;;;3.85;;
10605;SDS011;5350;42.698;23.148;2023-08-30T09:59:46;5.85;;;4.00;;
10605;SDS011;5350;42.698;23.148;2023-08-30T10:02:15;6.15;;;3.45;;
10605;SDS011;5350;42.698;23.148;2023-08-30T10:04:44;5.60;;;4.07;;
10605;SDS011;5350;42.698;23.148;2023-08-30T10:07:12;9.25;;;4.40;;
10605;SDS011;5350;42.698;23.148;2023-08-30T10:09:40;5.88;;;3.80;;
10605;SDS011;5350;42.698;23.148;2023-08-30T10:12:08;7.20;;;3.97;;
10605;SDS011;5350;42.698;23.148;2023-08-30T10:14:36;6.00;;;3.72;;
10605;SDS011;5350;42.698;23.148;2023-08-30T10:17:03;4.18;;;3.60;;
10605;SDS011;5350;42.698;23.148;2023-08-30T10:19:35;4.25;;;3.85;;
10605;SDS011;5350;42.698;23.148;2023-08-30T10:22:04;5.07;;;3.78;;
10605;SDS011;5350;42.698;23.148;2023-08-30T10:24:35;5.18;;;4.00;;
10605;SDS011;5350;42.698;23.148;2023-08-30T10:27:05;6.82;;;4.15;;
10605;SDS011;5350;42.698;23.148;2023-08-30T10:29:34;4.82;;;3.88;;
10605;SDS011;5350;42.698;23.148;2023-08-30T10:32:03;7.90;;;4.47;;
10605;SDS011;5350;42.698;23.148;2023-08-30T10:34:31;5.95;;;3.92;;
10605;SDS011;5350;42.698;23.148;2023-08-30T10:37:00;5.18;;;4.15;;
10605;SDS011;5350;42.698;23.148;2023-08-30T10:39:32;6.95;;;4.15;;
10605;SDS011;5350;42.698;23.148;2023-08-30T10:42:06;4.70;;;4.00;;
10605;SDS011;5350;42.698;23.148;2023-08-30T10:44:35;6.18;;;3.90;;
10605;SDS011;5350;42.698;23.148;2023-08-30T10:47:02;6.72;;;4.55;;
10605;SDS011;5350;42.698;23.148;2023-08-30T10:49:29;4.97;;;4.15;;
10605;SDS011;5350;42.698;23.148;2023-08-30T10:52:07;5.50;;;3.95;;
10605;SDS011;5350;42.698;23.148;2023-08-30T10:54:38;4.75;;;4.22;;
10605;SDS011;5350;42.698;23.148;2023-08-30T10:57:05;5.00;;;3.88;;
10605;SDS011;5350;42.698;23.148;2023-08-30T10:59:38;5.85;;;3.85;;
10605;SDS011;5350;42.698;23.148;2023-08-30T11:02:05;6.30;;;3.88;;
10605;SDS011;5350;42.698;23.148;2023-08-30T11:04:32;4.38;;;3.95;;
10605;SDS011;5350;42.698;23.148;2023-08-30T11:06:59;5.43;;;3.47;;
10605;SDS011;5350;42.698;23.148;2023-08-30T11:09:27;5.85;;;3.65;;
10605;SDS011;5350;42.698;23.148;2023-08-30T11:11:54;4.03;;;3.58;;
10605;SDS011;5350;42.698;23.148;2023-08-30T11:14:20;4.15;;;3.25;;
10605;SDS011;5350;42.698;23.148;2023-08-30T11:16:47;4.32;;;3.63;;
10605;SDS011;5350;42.698;23.148;2023-08-30T11:19:14;3.85;;;3.22;;
10605;SDS011;5350;42.698;23.148;2023-08-30T11:21:42;4.10;;;3.03;;
10605;SDS011;5350;42.698;23.148;2023-08-30T11:24:10;4.85;;;3.63;;
10605;SDS011;5350;42.698;23.148;2023-08-30T11:26:38;6.53;;;4.00;;
10605;SDS011;5350;42.698;23.148;2023-08-30T11:29:06;4.47;;;3.67;;
10605;SDS011;5350;42.698;23.148;2023-08-30T11:31:33;5.43;;;4.00;;
10605;SDS011;5350;42.698;23.148;2023-08-30T11:34:00;4.35;;;3.35;;
10605;SDS011;5350;42.698;23.148;2023-08-30T11:36:28;3.65;;;3.20;;
10605;SDS011;5350;42.698;23.148;2023-08-30T11:38:56;4.65;;;3.60;;
10605;SDS011;5350;42.698;23.148;2023-08-30T11:41:24;5.63;;;3.55;;
10605;SDS011;5350;42.698;23.148;2023-08-30T11:43:52;3.63;;;3.13;;
10605;SDS011;5350;42.698;23.148;2023-08-30T11:46:20;3.72;;;3.05;;
10605;SDS011;5350;42.698;23.148;2023-08-30T11:48:48;5.13;;;3.55;;
10605;SDS011;5350;42.698;23.148;2023-08-30T11:51:16;4.70;;;3.65;;
10605;SDS011;5350;42.698;23.148;2023-08-30T11:53:44;5.18;;;3.78;;
10605;SDS011;5350;42.698;23.148;2023-08-30T11:56:12;4.75;;;3.80;;
10605;SDS011;5350;42.698;23.148;2023-08-30T11:58:39;4.30;;;3.85;;
10605;SDS011;5350;42.698;23.148;2023-08-30T12:01:07;4.80;;;3.55;;
10605;SDS011;5350;42.698;23.148;2023-08-30T12:03:34;6.28;;;3.72;;
10605;SDS011;5350;42.698;23.148;2023-08-30T12:06:02;5.95;;;3.83;;
10605;SDS011;5350;42.698;23.148;2023-08-30T12:08:29;9.63;;;4.53;;
10605;SDS011;5350;42.698;23.148;2023-08-30T12:10:57;3.75;;;3.45;;
10605;SDS011;5350;42.698;23.148;2023-08-30T12:13:24;4.07;;;3.13;;
10605;SDS011;5350;42.698;23.148;2023-08-30T12:15:51;4.32;;;3.60;;
10605;SDS011;5350;42.698;23.148;2023-08-30T12:18:21;4.72;;;3.17;;
10605;SDS011;5350;42.698;23.148;2023-08-30T12:20:53;6.05;;;4.00;;
10605;SDS011;5350;42.698;23.148;2023-08-30T12:23:21;5.05;;;3.38;;
10605;SDS011;5350;42.698;23.148;2023-08-30T12:25:58;4.32;;;3.88;;
10605;SDS011;5350;42.698;23.148;2023-08-30T12:28:29;3.70;;;3.40;;
10605;SDS011;5350;42.698;23.148;2023-08-30T12:30:56;4.22;;;3.00;;
10605;SDS011;5350;42.698;23.148;2023-08-30T12:33:25;3.78;;;3.35;;
10605;SDS011;5350;42.698;23.148;2023-08-30T12:35:52;3.67;;;3.38;;
10605;SDS011;5350;42.698;23.148;2023-08-30T12:38:19;4.65;;;3.08;;
10605;SDS011;5350;42.698;23.148;2023-08-30T12:40:46;4.75;;;3.38;;
10605;SDS011;5350;42.698;23.148;2023-08-30T12:43:14;5.68;;;3.72;;
10605;SDS011;5350;42.698;23.148;2023-08-30T12:45:42;4.80;;;3.63;;
10605;SDS011;5350;42.698;23.148;2023-08-30T12:48:09;3.83;;;3.45;;
10605;SDS011;5350;42.698;23.148;2023-08-30T12:50:39;7.68;;;3.70;;
10605;SDS011;5350;42.698;23.148;2023-08-30T12:53:06;4.00;;;3.60;;
10605;SDS011;5350;42.698;23.148;2023-08-30T12:55:33;4.32;;;3.30;;
10605;SDS011;5350;42.698;23.148;2023-08-30T12:58:00;4.65;;;3.45;;
10605;SDS011;5350;42.698;23.148;2023-08-30T13:00:27;3.85;;;3.50;;
10605;SDS011;5350;42.698;23.148;2023-08-30T13:02:54;3.88;;;3.47;;
10605;SDS011;5350;42.698;23.148;2023-08-30T13:05:21;3.83;;;2.78;;
10605;SDS011;5350;42.698;23.148;2023-08-30T13:07:49;5.03;;;3.15;;
10605;SDS011;5350;42.698;23.148;2023-08-30T13:10:16;3.72;;;2.97;;
10605;SDS011;5350;42.698;23.148;2023-08-30T13:12:43;4.78;;;2.97;;
10605;SDS011;5350;42.698;23.148;2023-08-30T13:15:10;3.28;;;2.97;;
10605;SDS011;5350;42.698;23.148;2023-08-30T13:17:37;3.95;;;3.42;;
10605;SDS011;5350;42.698;23.148;2023-08-30T13:20:04;5.25;;;3.15;;
10605;SDS011;5350;42.698;23.148;2023-08-30T13:22:32;6.53;;;3.47;;
10605;SDS011;5350;42.698;23.148;2023-08-30T13:25:00;4.88;;;3.35;;
10605;SDS011;5350;42.698;23.148;2023-08-30T13:27:28;6.55;;;3.15;;
10605;SDS011;5350;42.698;23.148;2023-08-30T13:29:55;5.32;;;3.40;;
10605;SDS011;5350;42.698;23.148;2023-08-30T13:32:22;4.22;;;3.47;;
10605;SDS011;5350;42.698;23.148;2023-08-30T13:34:49;3.47;;;3.00;;
10605;SDS011;5350;42.698;23.148;2023-08-30T13:37:16;8.20;;;3.40;;
10605;SDS011;5350;42.698;23.148;2023-08-30T13:39:43;3.75;;;3.08;;
10605;SDS011;5350;42.698;23.148;2023-08-30T13:42:12;3.50;;;2.92;;
10605;SDS011;5350;42.698;23.148;2023-08-30T13:44:39;3.05;;;2.75;;
10605;SDS011;5350;42.698;23.148;2023-08-30T13:47:07;5.60;;;3.05;;
10605;SDS011;5350;42.698;23.148;2023-08-30T13:49:35;4.68;;;3.00;;
10605;SDS011;5350;42.698;23.148;2023-08-30T13:52:01;6.10;;;2.80;;
10605;SDS011;5350;42.698;23.148;2023-08-30T13:54:28;4.22;;;2.63;;
10605;SDS011;5350;42.698;23.148;2023-08-30T13:56:56;3.72;;;2.50;;
10605;SDS011;5350;42.698;23.148;2023-08-30T13:59:24;8.82;;;2.42;;
10605;SDS011;5350;42.698;23.148;2023-08-30T14:01:53;5.82;;;2.25;;
10605;SDS011;5350;42.698;23.148;2023-08-30T14:04:22;5.53;;;3.08;;
10605;SDS011;5350;42.698;23.148;2023-08-30T14:06:49;2.75;;;2.33;;
10605;SDS011;5350;42.698;23.148;2023-08-30T14:09:16;2.33;;;1.98;;
10605;SDS011;5350;42.698;23.148;2023-08-30T14:11:43;3.45;;;2.33;;
10605;SDS011;5350;42.698;23.148;2023-08-30T14:14:09;3.55;;;2.50;;
10605;SDS011;5350;42.698;23.148;2023-08-30T14:16:38;3.25;;;2.10;;
10605;SDS011;5350;42.698;23.148;2023-08-30T14:19:04;3.80;;;2.15;;
10605;SDS011;5350;42.698;23.148;2023-08-30T14:21:31;3.15;;;2.05;;
10605;SDS011;5350;42.698;23.148;2023-08-30T14:23:58;3.58;;;2.00;;
10605;SDS011;5350;42.698;23.148;2023-08-30T14:26:25;2.40;;;1.73;;
10605;SDS011;5350;42.698;23.148;2023-08-30T14:28:52;2.25;;;1.70;;
10605;SDS011;5350;42.698;23.148;2023-08-30T14:31:18;3.05;;;1.98;;
10605;SDS011;5350;42.698;23.148;2023-08-30T14:33:47;4.15;;;2.60;;
10605;SDS011;5350;42.698;23.148;2023-08-30T14:36:13;3.58;;;2.78;;
10605;SDS011;5350;42.698;23.148;2023-08-30T14:38:40;3.55;;;1.90;;
10605;SDS011;5350;42.698;23.148;2023-08-30T14:41:07;4.07;;;2.35;;
10605;SDS011;5350;42.698;23.148;2023-08-30T14:43:34;5.63;;;2.60;;
10605;SDS011;5350;42.698;23.148;2023-08-30T14:46:01;3.95;;;2.25;;
10605;SDS011;5350;42.698;23.148;2023-08-30T14:48:28;4.18;;;2.28;;